createdAt,value
2023-02-09T00:01:31.420Z,10.40
2023-02-09T00:03:59.776Z,10.40
2023-02-09T00:06:29.818Z,10.30
2023-02-09T00:08:58.179Z,10.30
2023-02-09T00:11:50.292Z,10.30
2023-02-09T00:14:21.777Z,10.40
2023-02-09T00:16:50.032Z,10.40
2023-02-09T00:19:17.660Z,10.40
2023-02-09T00:21:45.140Z,10.40
2023-02-09T00:24:13.208Z,10.40
2023-02-09T00:26:41.227Z,10.40
2023-02-09T00:29:09.074Z,10.40
2023-02-09T00:31:36.556Z,10.30
2023-02-09T00:34:04.642Z,10.20
2023-02-09T00:36:31.811Z,10.20
2023-02-09T00:38:59.377Z,10.10
2023-02-09T00:41:44.676Z,10.00
2023-02-09T00:44:12.604Z,10.00
2023-02-09T00:46:39.664Z,9.90
2023-02-09T00:49:07.016Z,9.90
2023-02-09T00:51:34.016Z,10.00
2023-02-09T00:54:02.666Z,9.90
2023-02-09T00:56:29.617Z,9.90
2023-02-09T00:58:56.520Z,9.80
2023-02-09T01:01:25.126Z,9.80
2023-02-09T01:03:53.351Z,9.70
2023-02-09T01:06:21.055Z,9.70
2023-02-09T01:08:48.251Z,9.70
2023-02-09T01:11:17.191Z,9.70
2023-02-09T01:13:45.222Z,9.70
2023-02-09T01:16:15.824Z,9.70
2023-02-09T01:18:43.140Z,9.60
2023-02-09T01:21:15.239Z,9.70
2023-02-09T01:23:42.392Z,9.70
2023-02-09T01:26:11.453Z,9.80
2023-02-09T01:28:38.857Z,9.80
2023-02-09T01:31:07.635Z,9.90
2023-02-09T01:33:34.655Z,9.90
2023-02-09T01:36:04.914Z,9.90
2023-02-09T01:38:31.883Z,9.90
2023-02-09T01:40:58.861Z,9.90
2023-02-09T01:43:25.812Z,9.90
2023-02-09T01:45:57.264Z,9.90
2023-02-09T01:48:28.434Z,9.90
2023-02-09T01:50:59.086Z,10.00
2023-02-09T01:53:27.444Z,10.00
2023-02-09T01:55:58.790Z,9.90
2023-02-09T01:58:27.950Z,10.00
2023-02-09T02:00:55.058Z,10.00
2023-02-09T02:03:27.384Z,10.00
2023-02-09T02:06:00.060Z,10.00
2023-02-09T02:08:49.192Z,10.00
2023-02-09T02:11:17.360Z,10.00
2023-02-09T02:13:44.545Z,9.90
2023-02-09T02:16:22.621Z,9.90
2023-02-09T02:19:14.060Z,9.90
2023-02-09T02:21:53.120Z,9.80
2023-02-09T02:25:02.011Z,9.80
2023-02-09T02:27:41.787Z,9.80
2023-02-09T02:30:24.171Z,9.90
2023-02-09T02:32:51.078Z,9.80
2023-02-09T02:35:42.320Z,9.80
2023-02-09T02:38:26.936Z,9.70
2023-02-09T02:41:12.853Z,9.80
2023-02-09T02:43:48.722Z,9.80
2023-02-09T02:46:33.013Z,9.60
2023-02-09T02:49:15.224Z,9.60
2023-02-09T02:51:48.654Z,9.60
2023-02-09T02:54:20.935Z,9.70
2023-02-09T02:56:53.511Z,9.70
2023-02-09T02:59:49.865Z,9.70
2023-02-09T03:02:22.341Z,9.80
2023-02-09T03:04:52.863Z,9.80
2023-02-09T03:07:20.104Z,9.80
2023-02-09T03:09:55.162Z,9.80
2023-02-09T03:12:30.383Z,9.80
2023-02-09T03:15:18.607Z,9.90
2023-02-09T03:18:28.943Z,9.90
2023-02-09T03:21:07.288Z,9.90
2023-02-09T03:23:46.038Z,9.80
2023-02-09T03:26:19.332Z,9.90
2023-02-09T03:28:49.002Z,9.90
2023-02-09T03:31:16.507Z,9.90
2023-02-09T03:33:44.449Z,9.90
2023-02-09T03:36:17.285Z,9.90
2023-02-09T03:38:44.556Z,9.90
2023-02-09T03:41:11.997Z,9.90
2023-02-09T03:43:57.419Z,9.90
2023-02-09T03:46:24.496Z,9.90
2023-02-09T03:48:51.468Z,10.00
2023-02-09T03:51:18.389Z,9.90
2023-02-09T03:53:47.165Z,9.60
2023-02-09T03:56:14.180Z,9.50
2023-02-09T03:58:41.197Z,9.70
2023-02-09T04:01:10.200Z,9.80
2023-02-09T04:03:39.745Z,9.90
2023-02-09T04:06:06.803Z,9.80
2023-02-09T04:08:33.814Z,9.80
2023-02-09T04:11:01.050Z,9.80
2023-02-09T04:13:28.576Z,9.90
2023-02-09T04:15:55.654Z,9.90
2023-02-09T04:18:22.786Z,9.90
2023-02-09T04:20:49.772Z,9.90
2023-02-09T04:23:17.321Z,9.90
2023-02-09T04:25:45.024Z,9.90
2023-02-09T04:28:12.105Z,9.90
2023-02-09T04:30:39.103Z,9.90
2023-02-09T04:33:06.023Z,9.90
2023-02-09T04:35:32.931Z,9.90
2023-02-09T04:37:59.840Z,10.00
2023-02-09T04:40:26.749Z,10.00
2023-02-09T04:42:53.679Z,10.10
2023-02-09T04:45:20.639Z,9.90
2023-02-09T04:47:47.579Z,9.90
2023-02-09T04:50:15.086Z,9.90
2023-02-09T04:52:41.982Z,9.90
2023-02-09T04:55:08.968Z,9.80
2023-02-09T04:58:02.012Z,9.90
2023-02-09T05:00:28.975Z,9.70
2023-02-09T05:02:55.965Z,9.80
2023-02-09T05:05:22.940Z,9.80
2023-02-09T05:07:49.915Z,9.90
2023-02-09T05:10:17.186Z,9.90
2023-02-09T05:12:44.142Z,9.90
2023-02-09T05:15:11.357Z,9.90
2023-02-09T05:17:38.302Z,9.90
2023-02-09T05:20:06.478Z,9.90
2023-02-09T05:22:33.512Z,9.90
2023-02-09T05:25:00.465Z,10.00
2023-02-09T05:27:27.580Z,10.00
2023-02-09T05:29:54.500Z,10.00
2023-02-09T05:32:21.564Z,9.90
2023-02-09T05:34:48.564Z,9.90
2023-02-09T05:37:15.471Z,9.90
2023-02-09T05:39:42.426Z,9.90
2023-02-09T05:42:15.362Z,9.90
2023-02-09T05:44:50.125Z,9.90
2023-02-09T05:47:22.556Z,9.90
2023-02-09T05:49:49.510Z,9.90
2023-02-09T05:52:16.992Z,9.90
2023-02-09T05:54:44.824Z,9.90
2023-02-09T05:57:11.789Z,9.90
2023-02-09T05:59:38.860Z,9.90
2023-02-09T06:02:05.924Z,9.80
2023-02-09T06:04:33.277Z,9.90
2023-02-09T06:07:00.300Z,9.90
2023-02-09T06:09:27.805Z,9.80
2023-02-09T06:11:54.746Z,9.80
2023-02-09T06:14:21.876Z,9.70
2023-02-09T06:16:48.992Z,9.70
2023-02-09T06:19:18.898Z,9.70
2023-02-09T06:21:45.927Z,9.60
2023-02-09T06:24:14.846Z,9.50
2023-02-09T06:26:42.437Z,9.30
2023-02-09T06:29:09.455Z,9.40
2023-02-09T06:31:37.312Z,9.30
2023-02-09T06:34:05.817Z,9.30
2023-02-09T06:36:33.186Z,9.40
2023-02-09T06:39:00.980Z,9.30
2023-02-09T06:41:28.010Z,9.30
2023-02-09T06:43:54.924Z,9.40
2023-02-09T06:46:21.966Z,9.40
2023-02-09T06:48:49.328Z,9.40
2023-02-09T06:51:17.289Z,9.40
2023-02-09T06:53:44.862Z,9.20
2023-02-09T06:56:13.512Z,9.10
2023-02-09T06:58:41.832Z,8.90
2023-02-09T07:01:12.491Z,9.00
2023-02-09T07:03:39.507Z,9.20
2023-02-09T07:06:17.960Z,9.20
2023-02-09T07:08:46.169Z,9.30
2023-02-09T07:11:15.457Z,9.20
2023-02-09T07:13:43.130Z,9.30
2023-02-09T07:16:11.575Z,9.30
2023-02-09T07:18:38.871Z,9.30
2023-02-09T07:21:12.302Z,9.10
2023-02-09T07:23:39.334Z,9.20
2023-02-09T07:26:10.586Z,9.00
2023-02-09T07:28:37.726Z,9.00
2023-02-09T07:31:07.087Z,9.00
2023-02-09T07:33:35.644Z,9.00
2023-02-09T07:36:07.371Z,9.00
2023-02-09T07:38:34.959Z,9.10
2023-02-09T07:41:03.821Z,9.10
2023-02-09T07:43:31.312Z,9.10
2023-02-09T07:46:06.596Z,9.20
2023-02-09T07:48:35.017Z,9.10
2023-02-09T07:51:02.472Z,9.10
2023-02-09T07:53:29.680Z,9.10
2023-02-09T07:55:57.132Z,9.20
2023-02-09T07:58:24.788Z,9.10
2023-02-09T08:00:52.208Z,9.10
2023-02-09T08:03:22.381Z,9.00
2023-02-09T08:06:19.680Z,9.00
2023-02-09T08:08:48.616Z,9.10
2023-02-09T08:11:19.295Z,9.20
2023-02-09T08:13:47.759Z,9.20
2023-02-09T08:16:17.900Z,9.20
2023-02-09T08:19:23.747Z,9.10
2023-02-09T08:21:51.216Z,9.30
2023-02-09T08:24:20.224Z,9.40
2023-02-09T08:26:47.274Z,9.40
2023-02-09T08:29:14.377Z,9.40
2023-02-09T08:31:41.494Z,9.50
2023-02-09T08:34:09.723Z,9.50
2023-02-09T08:36:37.668Z,9.50
2023-02-09T08:39:05.735Z,9.40
2023-02-09T08:41:34.523Z,9.50
2023-02-09T08:44:01.547Z,9.60
2023-02-09T08:46:28.816Z,9.50
2023-02-09T08:48:55.934Z,9.50
2023-02-09T08:51:22.914Z,9.60
2023-02-09T08:53:52.662Z,9.80
2023-02-09T08:56:21.649Z,9.80
2023-02-09T08:58:49.056Z,9.90
2023-02-09T09:01:16.170Z,9.90
2023-02-09T09:03:43.200Z,9.90
2023-02-09T09:06:12.093Z,10.00
2023-02-09T09:08:40.146Z,10.00
2023-02-09T09:11:12.844Z,10.00
2023-02-09T09:13:41.129Z,10.10
2023-02-09T09:16:14.449Z,10.10
2023-02-09T09:18:41.588Z,10.10
2023-02-09T09:21:09.501Z,10.20
2023-02-09T09:23:37.901Z,10.20
2023-02-09T09:26:05.100Z,10.20
2023-02-09T09:28:32.334Z,10.30
2023-02-09T09:31:05.797Z,10.30
2023-02-09T09:33:33.335Z,10.50
2023-02-09T09:36:01.785Z,10.40
2023-02-09T09:38:29.388Z,10.40
2023-02-09T09:40:56.908Z,10.60
2023-02-09T09:43:29.777Z,10.60
2023-02-09T09:45:57.194Z,10.60
2023-02-09T09:48:27.842Z,10.70
2023-02-09T09:50:58.769Z,10.70
2023-02-09T09:53:33.385Z,10.70
2023-02-09T09:56:07.924Z,10.80
2023-02-09T09:58:39.267Z,10.80
2023-02-09T10:01:06.864Z,10.80
2023-02-09T10:03:33.960Z,10.90
2023-02-09T10:06:11.558Z,11.00
2023-02-09T10:08:57.642Z,11.00
2023-02-09T10:11:40.379Z,11.00
2023-02-09T10:14:10.189Z,11.10
2023-02-09T10:16:40.391Z,11.20
2023-02-09T10:19:23.036Z,11.10
2023-02-09T10:21:50.209Z,11.10
2023-02-09T10:24:26.248Z,11.30
2023-02-09T10:27:02.470Z,11.30
2023-02-09T10:29:29.490Z,11.30
2023-02-09T10:32:05.262Z,11.20
2023-02-09T10:34:44.994Z,11.30
2023-02-09T10:37:19.946Z,11.50
2023-02-09T10:39:56.313Z,11.50
2023-02-09T10:42:36.717Z,11.50
2023-02-09T10:45:20.720Z,11.40
2023-02-09T10:48:14.105Z,11.40
2023-02-09T10:51:06.078Z,11.40
2023-02-09T10:53:56.712Z,11.40
2023-02-09T10:56:33.739Z,11.30
2023-02-09T10:59:04.147Z,11.30
2023-02-09T11:01:38.742Z,11.40
2023-02-09T11:04:27.222Z,11.40
2023-02-09T11:07:03.728Z,11.40
2023-02-09T11:09:34.797Z,11.40
2023-02-09T11:12:02.805Z,11.40
2023-02-09T11:14:30.155Z,11.40
2023-02-09T11:17:20.299Z,11.50
2023-02-09T11:19:50.606Z,11.50
2023-02-09T11:22:37.877Z,11.50
2023-02-09T11:25:27.717Z,11.60
2023-02-09T11:28:09.520Z,11.80
2023-02-09T11:31:05.723Z,12.00
2023-02-09T11:34:01.958Z,12.10
2023-02-09T11:36:34.201Z,12.60
2023-02-09T11:39:10.933Z,12.60
2023-02-09T11:42:18.353Z,12.50
2023-02-09T11:44:53.590Z,12.40
2023-02-09T11:47:48.801Z,12.40
2023-02-09T11:50:28.954Z,12.40
2023-02-09T11:52:59.742Z,12.30
2023-02-09T11:55:31.550Z,12.30
2023-02-09T11:58:13.492Z,12.30
2023-02-09T12:00:57.732Z,12.20
2023-02-09T12:03:29.008Z,12.30
2023-02-09T12:05:56.824Z,12.20
2023-02-09T12:08:45.276Z,12.20
2023-02-09T12:11:39.830Z,12.30
2023-02-09T12:14:50.319Z,12.50
2023-02-09T12:17:32.213Z,12.70
2023-02-09T12:20:01.470Z,12.70
2023-02-09T12:22:34.418Z,12.60
2023-02-09T12:25:33.237Z,12.70
2023-02-09T12:28:09.677Z,12.70
2023-02-09T12:30:42.713Z,12.90
2023-02-09T12:33:23.251Z,12.90
2023-02-09T12:36:08.479Z,12.80
2023-02-09T12:38:53.539Z,12.80
2023-02-09T12:41:31.266Z,12.70
2023-02-09T12:44:10.080Z,12.70
2023-02-09T12:46:51.479Z,12.60
2023-02-09T12:49:27.124Z,12.70
2023-02-09T12:52:03.258Z,12.70
2023-02-09T12:54:33.974Z,12.90
2023-02-09T12:57:16.286Z,13.00
2023-02-09T13:00:01.087Z,12.90
2023-02-09T13:02:50.017Z,12.80
2023-02-09T13:05:31.053Z,12.90
2023-02-09T13:08:20.121Z,12.90
2023-02-09T13:10:57.846Z,12.80
2023-02-09T13:13:31.687Z,12.80
2023-02-09T13:16:03.344Z,12.80
2023-02-09T13:18:50.242Z,12.80
2023-02-09T13:21:38.272Z,12.80
2023-02-09T13:24:19.214Z,12.80
2023-02-09T13:26:56.340Z,12.80
2023-02-09T13:29:24.766Z,12.80
2023-02-09T13:31:58.108Z,12.80
2023-02-09T13:34:44.254Z,12.80
2023-02-09T13:37:13.997Z,12.80
2023-02-09T13:39:42.045Z,12.80
2023-02-09T13:42:20.412Z,12.80
2023-02-09T13:44:52.035Z,13.00
2023-02-09T13:47:19.353Z,13.10
2023-02-09T13:50:17.872Z,13.10
2023-02-09T13:52:44.944Z,13.10
2023-02-09T13:55:12.603Z,13.10
2023-02-09T13:57:42.920Z,13.10
2023-02-09T14:00:25.954Z,13.10
2023-02-09T14:03:02.785Z,13.10
2023-02-09T14:05:39.113Z,13.10
2023-02-09T14:08:06.761Z,13.10
2023-02-09T14:10:35.174Z,13.10
2023-02-09T14:13:16.537Z,13.10
2023-02-09T14:16:09.680Z,13.20
2023-02-09T14:18:52.874Z,13.10
2023-02-09T14:21:23.187Z,13.10
2023-02-09T14:23:58.977Z,13.30
2023-02-09T14:26:28.885Z,13.40
2023-02-09T14:29:25.018Z,13.40
2023-02-09T14:31:59.718Z,13.30
2023-02-09T14:34:31.488Z,13.30
2023-02-09T14:37:05.224Z,13.30
2023-02-09T14:39:32.781Z,13.30
2023-02-09T14:42:18.049Z,13.30
2023-02-09T14:44:48.596Z,13.30
2023-02-09T14:47:35.240Z,13.20
2023-02-09T14:50:02.889Z,13.20
2023-02-09T14:52:32.602Z,13.20
2023-02-09T14:55:14.444Z,13.20
2023-02-09T14:57:41.398Z,13.20
2023-02-09T15:00:28.188Z,13.20
2023-02-09T15:02:55.892Z,13.20
2023-02-09T15:05:26.045Z,13.20
2023-02-09T15:07:58.279Z,13.20
2023-02-09T15:10:34.649Z,13.20
2023-02-09T15:13:03.160Z,13.20
2023-02-09T15:15:30.407Z,13.20
2023-02-09T15:18:01.518Z,13.20
2023-02-09T15:20:32.749Z,13.20
2023-02-09T15:23:00.838Z,13.20
2023-02-09T15:25:29.365Z,13.30
2023-02-09T15:27:58.420Z,13.30
2023-02-09T15:30:33.481Z,13.30
2023-02-09T15:33:01.128Z,13.30
2023-02-09T15:35:28.736Z,13.30
2023-02-09T15:37:59.673Z,13.50
2023-02-09T15:40:47.584Z,13.50
2023-02-09T15:43:38.810Z,13.50
2023-02-09T15:46:25.435Z,13.40
2023-02-09T15:48:52.475Z,13.40
2023-02-09T15:51:19.741Z,13.30
2023-02-09T15:53:47.719Z,13.30
2023-02-09T15:56:15.428Z,13.30
2023-02-09T15:58:44.922Z,13.30
2023-02-09T16:01:16.811Z,13.30
2023-02-09T16:03:44.396Z,13.30
2023-02-09T16:06:24.880Z,13.30
2023-02-09T16:08:53.747Z,13.30
2023-02-09T16:11:24.266Z,13.20
2023-02-09T16:13:51.562Z,13.30
2023-02-09T16:16:18.634Z,13.50
2023-02-09T16:18:46.865Z,13.50
2023-02-09T16:21:23.865Z,13.40
2023-02-09T16:23:52.710Z,13.50
2023-02-09T16:26:21.014Z,13.40
2023-02-09T16:28:48.190Z,13.40
2023-02-09T16:31:15.229Z,13.30
2023-02-09T16:33:43.435Z,13.40
2023-02-09T16:36:19.766Z,13.40
2023-02-09T16:38:47.057Z,13.40
2023-02-09T16:41:35.266Z,13.40
2023-02-09T16:44:11.727Z,13.50
2023-02-09T16:46:38.938Z,13.50
2023-02-09T16:49:06.101Z,13.50
2023-02-09T16:51:34.431Z,13.50
2023-02-09T16:54:01.413Z,13.50
2023-02-09T16:56:30.808Z,13.40
2023-02-09T16:58:57.798Z,13.40
2023-02-09T17:01:24.946Z,13.30
2023-02-09T17:03:56.445Z,13.30
2023-02-09T17:06:26.608Z,13.20
2023-02-09T17:08:56.415Z,13.10
2023-02-09T17:11:26.559Z,13.10
2023-02-09T17:13:53.881Z,13.20
2023-02-09T17:16:29.736Z,13.20
2023-02-09T17:19:00.874Z,13.10
2023-02-09T17:21:31.559Z,12.70
2023-02-09T17:23:58.616Z,12.20
2023-02-09T17:26:25.921Z,11.80
2023-02-09T17:28:53.124Z,11.70
2023-02-09T17:31:24.201Z,11.80
2023-02-09T17:33:56.948Z,12.00
2023-02-09T17:36:27.408Z,12.20
2023-02-09T17:38:57.198Z,12.30
2023-02-09T17:41:30.537Z,12.30
2023-02-09T17:44:21.973Z,12.40
2023-02-09T17:46:54.021Z,12.60
2023-02-09T17:49:20.983Z,12.70
2023-02-09T17:51:48.883Z,12.60
2023-02-09T17:54:18.834Z,12.70
2023-02-09T17:56:46.332Z,12.70
2023-02-09T17:59:14.857Z,12.70
2023-02-09T18:01:45.193Z,12.90
2023-02-09T18:04:21.877Z,12.90
2023-02-09T18:06:49.137Z,12.90
2023-02-09T18:09:16.704Z,12.90
2023-02-09T18:11:52.676Z,13.00
2023-02-09T18:14:22.286Z,12.90
2023-02-09T18:16:52.032Z,13.00
2023-02-09T18:19:19.157Z,12.90
2023-02-09T18:21:54.562Z,12.90
2023-02-09T18:24:24.185Z,12.90
2023-02-09T18:26:51.476Z,12.90
2023-02-09T18:29:20.491Z,12.90
2023-02-09T18:31:47.680Z,12.90
2023-02-09T18:34:16.342Z,12.90
2023-02-09T18:36:43.611Z,13.00
2023-02-09T18:39:10.666Z,13.00
2023-02-09T18:41:37.614Z,12.90
2023-02-09T18:44:04.655Z,13.00
2023-02-09T18:46:32.687Z,13.00
2023-02-09T18:49:01.848Z,13.00
2023-02-09T18:51:31.352Z,13.00
2023-02-09T18:53:58.976Z,13.00
2023-02-09T18:56:28.228Z,13.00
2023-02-09T18:58:55.626Z,13.00
2023-02-09T19:01:23.680Z,13.00
2023-02-09T19:03:54.477Z,13.10
2023-02-09T19:06:22.823Z,13.00
2023-02-09T19:08:50.421Z,13.10
2023-02-09T19:11:20.555Z,13.00
2023-02-09T19:14:08.676Z,13.00
2023-02-09T19:16:36.762Z,12.90
2023-02-09T19:19:04.351Z,12.90
2023-02-09T19:21:32.316Z,13.00
2023-02-09T19:23:59.285Z,13.00
2023-02-09T19:26:26.254Z,13.00
2023-02-09T19:28:55.735Z,13.00
2023-02-09T19:31:22.788Z,13.00
2023-02-09T19:33:49.758Z,13.00
2023-02-09T19:36:16.763Z,13.00
2023-02-09T19:38:43.712Z,13.00
2023-02-09T19:41:12.063Z,13.10
2023-02-09T19:43:39.959Z,13.00
2023-02-09T19:46:08.084Z,13.00
2023-02-09T19:48:35.167Z,13.00
2023-02-09T19:51:02.251Z,13.00
2023-02-09T19:53:29.265Z,13.00
2023-02-09T19:55:56.262Z,13.00
2023-02-09T19:58:23.822Z,13.10
2023-02-09T20:00:51.978Z,13.10
2023-02-09T20:03:19.215Z,13.10
2023-02-09T20:05:47.170Z,13.10
2023-02-09T20:08:16.778Z,13.10
2023-02-09T20:10:44.598Z,13.10
2023-02-09T20:13:15.773Z,13.10
2023-02-09T20:15:43.794Z,13.00
2023-02-09T20:18:12.640Z,13.00
2023-02-09T20:20:42.999Z,13.00
2023-02-09T20:23:10.420Z,13.00
2023-02-09T20:25:40.818Z,13.00
2023-02-09T20:28:07.937Z,13.00
2023-02-09T20:30:35.331Z,12.90
2023-02-09T20:33:02.369Z,12.90
2023-02-09T20:35:29.463Z,12.90
2023-02-09T20:37:56.449Z,12.90
2023-02-09T20:40:23.942Z,12.90
2023-02-09T20:43:09.334Z,12.90
2023-02-09T20:45:54.924Z,12.90
2023-02-09T20:48:21.875Z,12.80
2023-02-09T20:50:49.150Z,12.80
2023-02-09T20:53:16.397Z,12.80
2023-02-09T20:55:43.825Z,12.80
2023-02-09T20:58:13.560Z,12.80
2023-02-09T21:00:46.700Z,12.80
2023-02-09T21:03:13.823Z,12.80
2023-02-09T21:05:40.985Z,12.80
2023-02-09T21:08:09.324Z,12.70
2023-02-09T21:10:38.534Z,12.70
2023-02-09T21:13:07.297Z,12.80
2023-02-09T21:15:38.508Z,12.80
2023-02-09T21:18:06.770Z,12.80
2023-02-09T21:20:36.998Z,12.90
2023-02-09T21:23:04.286Z,12.80
2023-02-09T21:25:31.635Z,12.80
2023-02-09T21:27:59.836Z,12.90
2023-02-09T21:30:27.535Z,12.90
2023-02-09T21:32:55.866Z,12.80
2023-02-09T21:35:23.202Z,12.90
2023-02-09T21:37:50.134Z,12.90
2023-02-09T21:40:17.394Z,12.90
2023-02-09T21:42:44.421Z,12.90
2023-02-09T21:45:11.595Z,12.80
2023-02-09T21:47:39.365Z,12.80
2023-02-09T21:50:08.979Z,12.80
2023-02-09T21:52:36.074Z,12.90
2023-02-09T21:55:04.421Z,12.90
2023-02-09T21:57:31.692Z,12.90
2023-02-09T21:59:59.883Z,12.90
2023-02-09T22:02:27.459Z,12.80
2023-02-09T22:04:54.477Z,12.90
2023-02-09T22:07:21.422Z,12.90
2023-02-09T22:09:48.442Z,12.90
2023-02-09T22:12:15.555Z,12.90
2023-02-09T22:14:42.531Z,12.90
2023-02-09T22:17:09.448Z,12.90
2023-02-09T22:19:37.298Z,12.80
2023-02-09T22:22:05.014Z,12.80
2023-02-09T22:24:34.761Z,12.80
2023-02-09T22:27:02.600Z,12.80
2023-02-09T22:29:29.953Z,12.80
2023-02-09T22:31:58.183Z,12.90
2023-02-09T22:34:25.451Z,12.80
2023-02-09T22:36:53.685Z,12.90
2023-02-09T22:39:21.383Z,12.90
2023-02-09T22:41:48.511Z,12.90
2023-02-09T22:44:17.087Z,12.90
2023-02-09T22:46:45.562Z,12.90
2023-02-09T22:49:18.464Z,12.90
2023-02-09T22:51:46.811Z,12.90
2023-02-09T22:54:15.569Z,12.90
2023-02-09T22:56:43.027Z,12.90
2023-02-09T22:59:11.948Z,12.90
2023-02-09T23:01:39.351Z,13.00
2023-02-09T23:04:06.539Z,12.90
2023-02-09T23:06:33.597Z,12.90
2023-02-09T23:09:04.614Z,12.90
2023-02-09T23:11:32.044Z,12.80
2023-02-09T23:14:10.179Z,12.80
2023-02-09T23:16:40.280Z,12.80
2023-02-09T23:19:10.993Z,12.70
2023-02-09T23:21:41.592Z,12.80
2023-02-09T23:24:10.114Z,12.70
2023-02-09T23:26:38.104Z,12.70
2023-02-09T23:29:07.931Z,12.70
2023-02-09T23:31:35.453Z,12.60
2023-02-09T23:34:02.411Z,12.50
2023-02-09T23:36:30.854Z,12.50
2023-02-09T23:39:00.341Z,12.50
2023-02-09T23:41:27.765Z,12.40
2023-02-09T23:43:55.171Z,12.40
2023-02-09T23:46:28.010Z,12.40
2023-02-09T23:48:56.741Z,12.40
2023-02-09T23:51:32.250Z,12.30
2023-02-09T23:54:02.068Z,12.30
2023-02-09T23:56:31.808Z,12.30
2023-02-09T23:58:58.838Z,12.20
